createdAt,value
2022-11-15T00:00:57.763Z,38.47
2022-11-15T00:03:26.479Z,42.40
2022-11-15T00:05:53.606Z,39.40
2022-11-15T00:08:20.541Z,41.72
2022-11-15T00:11:01.693Z,28.75
2022-11-15T00:13:28.773Z,35.22
2022-11-15T00:15:59.312Z,35.22
2022-11-15T00:18:26.584Z,33.80
2022-11-15T00:20:53.310Z,35.22
2022-11-15T00:23:20.404Z,35.83
2022-11-15T00:25:47.107Z,38.88
2022-11-15T00:28:13.968Z,44.60
2022-11-15T00:30:40.802Z,40.78
2022-11-15T00:33:09.057Z,39.42
2022-11-15T00:35:36.117Z,41.75
2022-11-15T00:38:03.114Z,41.78
2022-11-15T00:40:29.917Z,36.42
2022-11-15T00:42:56.789Z,48.80
2022-11-15T00:45:24.196Z,39.17
2022-11-15T00:47:51.361Z,45.08
2022-11-15T00:50:18.696Z,39.17
2022-11-15T00:52:45.755Z,48.08
2022-11-15T00:55:17.178Z,40.97
2022-11-15T00:57:44.664Z,47.85
2022-11-15T01:00:12.716Z,41.35
2022-11-15T01:02:39.707Z,43.63
2022-11-15T01:05:07.050Z,39.33
2022-11-15T01:07:34.043Z,39.13
2022-11-15T01:10:00.728Z,46.63
2022-11-15T01:12:27.722Z,36.83
2022-11-15T01:14:54.355Z,36.03
2022-11-15T01:17:21.042Z,38.63
2022-11-15T01:19:47.731Z,40.00
2022-11-15T01:22:14.568Z,42.90
2022-11-15T01:24:41.246Z,37.03
2022-11-15T01:27:08.417Z,34.60
2022-11-15T01:29:35.150Z,33.67
2022-11-15T01:32:02.064Z,36.72
2022-11-15T01:34:28.738Z,32.42
2022-11-15T01:36:55.517Z,39.75
2022-11-15T01:39:22.149Z,41.42
2022-11-15T01:41:48.922Z,35.97
2022-11-15T01:44:37.220Z,44.03
2022-11-15T01:47:13.226Z,35.60
2022-11-15T01:49:51.551Z,37.63
2022-11-15T01:52:22.028Z,35.55
2022-11-15T01:54:54.936Z,31.80
2022-11-15T01:57:21.911Z,45.28
2022-11-15T01:59:48.987Z,37.28
2022-11-15T02:02:16.191Z,38.92
2022-11-15T02:04:47.724Z,42.78
2022-11-15T02:07:18.666Z,40.40
2022-11-15T02:09:46.941Z,47.00
2022-11-15T02:12:19.907Z,45.80
2022-11-15T02:14:53.195Z,45.55
2022-11-15T02:17:49.016Z,34.97
2022-11-15T02:20:49.305Z,42.65
2022-11-15T02:23:34.897Z,47.63
2022-11-15T02:26:25.936Z,37.35
2022-11-15T02:29:09.898Z,46.30
2022-11-15T02:31:55.185Z,46.67
2022-11-15T02:34:41.496Z,39.60
2022-11-15T02:37:17.146Z,37.53
2022-11-15T02:39:58.944Z,35.70
2022-11-15T02:42:48.781Z,34.75
2022-11-15T02:45:23.387Z,38.83
2022-11-15T02:47:55.165Z,39.53
2022-11-15T02:50:26.204Z,38.30
2022-11-15T02:52:53.211Z,37.25
2022-11-15T02:55:32.519Z,35.00
2022-11-15T02:58:33.862Z,37.00
2022-11-15T03:01:03.856Z,31.55
2022-11-15T03:03:46.380Z,33.60
2022-11-15T03:06:25.196Z,34.15
2022-11-15T03:09:27.351Z,44.60
2022-11-15T03:12:01.141Z,29.60
2022-11-15T03:14:40.464Z,30.33
2022-11-15T03:17:19.423Z,33.65
2022-11-15T03:19:52.449Z,32.97
2022-11-15T03:22:23.166Z,36.58
2022-11-15T03:24:55.648Z,34.60
2022-11-15T03:27:28.198Z,31.40
2022-11-15T03:30:00.873Z,35.10
2022-11-15T03:32:31.599Z,36.75
2022-11-15T03:35:04.473Z,32.88
2022-11-15T03:38:03.709Z,34.05
2022-11-15T03:40:47.802Z,36.00
2022-11-15T03:43:40.988Z,39.08
2022-11-15T03:46:33.854Z,40.60
2022-11-15T03:49:18.905Z,40.63
2022-11-15T03:51:45.718Z,35.53
2022-11-15T03:54:14.794Z,39.42
2022-11-15T03:56:41.639Z,38.20
2022-11-15T03:59:08.328Z,36.65
2022-11-15T04:01:35.174Z,33.80
2022-11-15T04:04:02.243Z,37.35
2022-11-15T04:06:29.052Z,41.00
2022-11-15T04:08:55.760Z,36.03
2022-11-15T04:11:22.717Z,40.78
2022-11-15T04:13:49.393Z,39.67
2022-11-15T04:16:16.116Z,36.67
2022-11-15T04:18:43.127Z,45.33
2022-11-15T04:21:28.758Z,42.58
2022-11-15T04:24:13.545Z,40.80
2022-11-15T04:26:40.210Z,41.80
2022-11-15T04:29:25.366Z,43.03
2022-11-15T04:31:52.043Z,42.03
2022-11-15T04:34:19.093Z,44.17
2022-11-15T04:37:04.024Z,52.47
2022-11-15T04:39:30.699Z,43.17
2022-11-15T04:41:57.544Z,41.97
2022-11-15T04:44:24.273Z,42.70
2022-11-15T04:46:51.140Z,44.00
2022-11-15T04:49:17.854Z,45.10
2022-11-15T04:51:44.965Z,37.30
2022-11-15T04:54:11.605Z,44.33
2022-11-15T04:56:38.228Z,43.67
2022-11-15T04:59:04.852Z,42.45
2022-11-15T05:01:31.646Z,40.47
2022-11-15T05:04:16.818Z,44.05
2022-11-15T05:06:43.748Z,50.00
2022-11-15T05:09:10.624Z,48.42
2022-11-15T05:11:37.422Z,40.88
2022-11-15T05:14:04.120Z,43.55
2022-11-15T05:16:31.305Z,52.67
2022-11-15T05:18:58.033Z,44.60
2022-11-15T05:21:24.889Z,48.00
2022-11-15T05:23:51.910Z,51.95
2022-11-15T05:26:19.881Z,50.40
2022-11-15T05:28:46.931Z,50.20
2022-11-15T05:31:16.425Z,57.15
2022-11-15T05:33:45.345Z,48.45
2022-11-15T05:36:36.659Z,55.13
2022-11-15T05:39:05.757Z,40.67
2022-11-15T05:41:37.243Z,55.25
2022-11-15T05:44:08.725Z,53.85
2022-11-15T05:46:38.027Z,50.35
2022-11-15T05:49:08.433Z,53.10
2022-11-15T05:51:35.377Z,47.72
2022-11-15T05:54:03.053Z,54.17
2022-11-15T05:56:30.466Z,51.35
2022-11-15T05:58:59.985Z,56.45
2022-11-15T06:01:27.983Z,53.47
2022-11-15T06:03:54.933Z,54.15
2022-11-15T06:06:21.787Z,56.13
2022-11-15T06:08:49.050Z,55.20
2022-11-15T06:11:15.886Z,56.28
2022-11-15T06:13:42.802Z,51.80
2022-11-15T06:16:09.713Z,54.65
2022-11-15T06:18:37.804Z,52.10
2022-11-15T06:21:05.297Z,53.83
2022-11-15T06:23:35.981Z,51.50
2022-11-15T06:26:03.851Z,50.45
2022-11-15T06:28:32.408Z,56.75
2022-11-15T06:31:12.230Z,62.50
2022-11-15T06:33:43.250Z,51.67
2022-11-15T06:36:17.722Z,53.75
2022-11-15T06:38:46.025Z,52.85
2022-11-15T06:41:14.567Z,53.75
2022-11-15T06:43:42.164Z,49.35
2022-11-15T06:46:09.644Z,51.13
2022-11-15T06:48:37.420Z,55.40
2022-11-15T06:51:05.309Z,56.40
2022-11-15T06:53:33.397Z,54.88
2022-11-15T06:56:06.057Z,59.85
2022-11-15T06:58:32.877Z,52.60
2022-11-15T07:01:04.632Z,58.95
2022-11-15T07:03:31.771Z,50.58
2022-11-15T07:06:04.168Z,60.78
2022-11-15T07:08:34.042Z,52.90
2022-11-15T07:11:03.070Z,45.15
2022-11-15T07:13:35.026Z,57.90
2022-11-15T07:16:07.189Z,54.22
2022-11-15T07:18:41.398Z,50.05
2022-11-15T07:21:10.754Z,51.17
2022-11-15T07:23:39.247Z,53.13
2022-11-15T07:26:06.443Z,46.97
2022-11-15T07:28:33.289Z,46.42
2022-11-15T07:31:07.735Z,56.25
2022-11-15T07:33:35.467Z,47.35
2022-11-15T07:36:07.746Z,50.08
2022-11-15T07:38:42.156Z,47.72
2022-11-15T07:41:09.990Z,51.80
2022-11-15T07:43:36.993Z,54.25
2022-11-15T07:46:10.504Z,52.42
2022-11-15T07:48:45.861Z,55.90
2022-11-15T07:51:15.405Z,51.08
2022-11-15T07:53:43.506Z,46.03
2022-11-15T07:56:11.070Z,48.47
2022-11-15T07:58:37.740Z,56.15
2022-11-15T08:01:09.888Z,49.03
2022-11-15T08:03:37.200Z,45.00
2022-11-15T08:06:04.161Z,54.95
2022-11-15T08:08:30.943Z,46.33
2022-11-15T08:11:00.862Z,57.05
2022-11-15T08:13:27.731Z,49.10
2022-11-15T08:16:03.419Z,55.08
2022-11-15T08:18:30.259Z,49.70
2022-11-15T08:21:01.035Z,58.83
2022-11-15T08:23:27.863Z,53.30
2022-11-15T08:26:00.625Z,59.13
2022-11-15T08:28:27.358Z,57.85
2022-11-15T08:30:54.297Z,55.53
2022-11-15T08:33:21.043Z,60.08
2022-11-15T08:35:48.183Z,54.33
2022-11-15T08:38:14.907Z,61.92
2022-11-15T08:40:41.635Z,59.53
2022-11-15T08:43:09.037Z,59.50
2022-11-15T08:45:36.506Z,52.03
2022-11-15T08:48:04.420Z,52.25
2022-11-15T08:50:31.928Z,49.13
2022-11-15T08:52:59.198Z,59.58
2022-11-15T08:55:26.042Z,51.67
2022-11-15T08:57:52.821Z,51.97
2022-11-15T09:00:21.103Z,44.60
2022-11-15T09:02:48.263Z,47.70
2022-11-15T09:05:16.760Z,57.30
2022-11-15T09:07:44.061Z,53.47
2022-11-15T09:10:11.231Z,48.17
2022-11-15T09:12:38.433Z,53.45
2022-11-15T09:15:06.829Z,51.65
2022-11-15T09:17:33.537Z,59.03
2022-11-15T09:20:00.514Z,46.25
2022-11-15T09:22:27.460Z,54.65
2022-11-15T09:24:54.146Z,41.00
2022-11-15T09:27:20.879Z,43.80
2022-11-15T09:29:47.907Z,51.50
2022-11-15T09:32:14.698Z,57.88
2022-11-15T09:34:41.433Z,62.35
2022-11-15T09:37:08.146Z,47.03
2022-11-15T09:39:34.978Z,49.20
2022-11-15T09:42:23.465Z,64.10
2022-11-15T09:45:08.687Z,54.22
2022-11-15T09:47:56.699Z,47.30
2022-11-15T09:50:39.929Z,52.50
2022-11-15T09:53:14.048Z,43.80
2022-11-15T09:55:57.817Z,48.70
2022-11-15T09:58:43.211Z,51.83
2022-11-15T10:01:21.103Z,48.92
2022-11-15T10:03:48.025Z,45.63
2022-11-15T10:06:26.254Z,44.83
2022-11-15T10:08:56.175Z,37.25
2022-11-15T10:11:38.263Z,45.08
2022-11-15T10:14:19.408Z,47.35
2022-11-15T10:16:58.173Z,47.80
2022-11-15T10:19:53.545Z,49.10
2022-11-15T10:22:36.613Z,43.88
2022-11-15T10:25:09.654Z,57.42
2022-11-15T10:27:36.678Z,50.00
2022-11-15T10:30:05.689Z,58.38
2022-11-15T10:32:37.706Z,52.88
2022-11-15T10:35:23.756Z,46.47
2022-11-15T10:37:50.708Z,45.83
2022-11-15T10:40:24.147Z,53.38
2022-11-15T10:43:13.633Z,43.55
2022-11-15T10:45:40.598Z,61.80
2022-11-15T10:48:13.522Z,43.28
2022-11-15T10:50:42.631Z,43.63
2022-11-15T10:53:32.948Z,48.65
2022-11-15T10:56:14.114Z,45.38
2022-11-15T10:58:52.774Z,40.42
2022-11-15T11:01:23.686Z,48.13
2022-11-15T11:04:05.646Z,47.45
2022-11-15T11:06:57.079Z,44.38
2022-11-15T11:09:34.471Z,48.55
2022-11-15T11:12:02.560Z,44.05
2022-11-15T11:14:34.775Z,44.67
2022-11-15T11:17:37.448Z,47.22
2022-11-15T11:20:16.579Z,39.47
2022-11-15T11:23:18.331Z,46.75
2022-11-15T11:25:49.120Z,40.25
2022-11-15T11:31:30.796Z,36.05
2022-11-15T11:34:29.394Z,35.75
2022-11-15T11:37:13.252Z,34.05
2022-11-15T11:40:07.493Z,25.27
2022-11-15T11:43:00.017Z,32.83
2022-11-15T11:46:02.819Z,29.67
2022-11-15T11:48:49.711Z,24.20
2022-11-15T11:51:33.938Z,22.40
2022-11-15T11:54:25.409Z,31.33
2022-11-15T11:56:54.445Z,24.58
2022-11-15T11:59:40.409Z,18.90
2022-11-15T12:02:21.408Z,21.75
2022-11-15T12:04:54.185Z,26.98
2022-11-15T12:07:32.335Z,20.25
2022-11-15T12:10:25.541Z,22.45
2022-11-15T12:12:57.069Z,19.33
2022-11-15T12:15:28.481Z,26.75
2022-11-15T12:17:58.333Z,14.55
2022-11-15T12:20:28.213Z,29.60
2022-11-15T12:22:58.665Z,15.85
2022-11-15T12:25:52.387Z,17.65
2022-11-15T12:31:04.649Z,24.45
2022-11-15T12:33:39.531Z,20.63
2022-11-15T12:36:32.870Z,16.83
2022-11-15T12:39:01.308Z,17.38
2022-11-15T12:41:30.515Z,16.25
2022-11-15T12:44:00.173Z,20.13
2022-11-15T12:46:30.112Z,18.00
2022-11-15T12:49:08.720Z,17.33
2022-11-15T12:51:44.960Z,15.73
2022-11-15T12:58:30.628Z,22.50
2022-11-15T13:00:57.796Z,20.65
2022-11-15T13:03:26.486Z,15.75
2022-11-15T13:05:58.568Z,18.40
2022-11-15T13:08:39.647Z,19.52
2022-11-15T13:11:47.803Z,19.65
2022-11-15T13:14:49.205Z,23.90
2022-11-15T13:17:36.990Z,14.82
2022-11-15T13:20:12.515Z,20.75
2022-11-15T13:22:55.581Z,20.05
2022-11-15T13:25:54.194Z,19.20
2022-11-15T13:28:30.933Z,21.63
2022-11-15T13:31:01.195Z,18.13
2022-11-15T13:33:37.075Z,25.40
2022-11-15T13:36:22.717Z,22.30
2022-11-15T13:39:28.970Z,26.55
2022-11-15T13:41:55.686Z,18.35
2022-11-15T13:44:34.724Z,22.10
2022-11-15T13:47:07.487Z,24.20
2022-11-15T13:49:35.575Z,25.83
2022-11-15T13:52:06.166Z,23.77
2022-11-15T13:54:45.404Z,21.17
2022-11-15T13:57:32.124Z,25.90
2022-11-15T14:00:03.283Z,28.30
2022-11-15T14:02:33.796Z,31.30
2022-11-15T14:05:00.381Z,31.05
2022-11-15T14:07:29.877Z,28.10
2022-11-15T14:09:56.959Z,22.58
2022-11-15T14:12:32.379Z,23.92
2022-11-15T14:15:01.478Z,34.67
2022-11-15T14:17:30.920Z,26.67
2022-11-15T14:20:00.996Z,27.90
2022-11-15T14:22:29.511Z,60.05
2022-11-15T14:25:17.559Z,78.60
2022-11-15T14:28:05.434Z,184.68
2022-11-15T14:30:33.589Z,218.90
2022-11-15T14:33:00.349Z,107.25
2022-11-15T14:35:27.519Z,245.32
2022-11-15T14:37:54.293Z,95.43
2022-11-15T14:40:23.554Z,47.85
2022-11-15T14:42:51.380Z,35.50
2022-11-15T14:45:21.141Z,33.40
2022-11-15T14:47:47.904Z,36.55
2022-11-15T14:50:20.857Z,31.00
2022-11-15T14:52:49.176Z,29.15
2022-11-15T14:55:22.865Z,30.45
2022-11-15T14:57:49.871Z,25.02
2022-11-15T15:00:18.122Z,31.50
2022-11-15T15:02:46.809Z,34.13
2022-11-15T15:05:22.461Z,43.33
2022-11-15T15:07:49.827Z,38.58
2022-11-15T15:10:39.519Z,30.40
2022-11-15T15:13:06.452Z,28.48
2022-11-15T15:15:38.409Z,26.00
2022-11-15T15:18:05.999Z,30.58
2022-11-15T15:20:33.721Z,31.05
2022-11-15T15:23:00.414Z,28.90
2022-11-15T15:25:33.894Z,30.17
2022-11-15T15:28:01.508Z,23.35
2022-11-15T15:30:30.028Z,32.47
2022-11-15T15:32:57.350Z,28.73
2022-11-15T15:35:32.955Z,27.45
2022-11-15T15:37:59.969Z,68.38
2022-11-15T15:40:29.409Z,71.53
2022-11-15T15:42:56.193Z,38.03
2022-11-15T15:45:23.267Z,106.50
2022-11-15T15:47:53.389Z,46.17
2022-11-15T15:50:33.036Z,36.17
2022-11-15T15:53:02.461Z,110.93
2022-11-15T15:55:29.845Z,69.78
2022-11-15T15:57:56.658Z,85.82
2022-11-15T16:00:27.020Z,42.55
2022-11-15T16:02:55.367Z,45.28
2022-11-15T16:05:23.690Z,48.30
2022-11-15T16:07:50.437Z,58.17
2022-11-15T16:10:22.444Z,30.30
2022-11-15T16:12:49.789Z,44.20
2022-11-15T16:15:16.770Z,53.58
2022-11-15T16:17:58.357Z,33.22
2022-11-15T16:20:51.115Z,72.25
2022-11-15T16:23:21.107Z,72.75
2022-11-15T16:25:54.008Z,40.95
2022-11-15T16:28:33.139Z,38.47
2022-11-15T16:31:10.690Z,34.58
2022-11-15T16:33:37.844Z,58.08
2022-11-15T16:36:23.428Z,40.97
2022-11-15T16:38:54.336Z,36.78
2022-11-15T16:41:21.096Z,50.05
2022-11-15T16:43:51.140Z,42.60
2022-11-15T16:46:23.265Z,31.92
2022-11-15T16:48:50.644Z,47.55
2022-11-15T16:51:17.670Z,39.97
2022-11-15T16:53:44.768Z,35.30
2022-11-15T16:56:23.105Z,39.75
2022-11-15T16:58:49.810Z,30.58
2022-11-15T17:01:26.308Z,32.13
2022-11-15T17:03:53.696Z,32.47
2022-11-15T17:06:21.363Z,30.23
2022-11-15T17:08:48.726Z,32.88
2022-11-15T17:11:19.621Z,32.60
2022-11-15T17:13:47.279Z,35.75
2022-11-15T17:16:15.909Z,34.90
2022-11-15T17:18:46.076Z,33.00
2022-11-15T17:21:18.441Z,41.83
2022-11-15T17:23:45.672Z,33.03
2022-11-15T17:26:31.446Z,81.22
2022-11-15T17:29:01.632Z,58.08
2022-11-15T17:31:30.905Z,55.58
2022-11-15T17:33:57.653Z,45.30
2022-11-15T17:36:24.465Z,42.13
2022-11-15T17:38:58.023Z,37.83
2022-11-15T17:41:26.662Z,26.73
2022-11-15T17:43:58.168Z,30.08
2022-11-15T17:46:24.956Z,31.58
2022-11-15T17:48:51.635Z,31.52
2022-11-15T17:51:19.236Z,31.58
2022-11-15T17:53:47.484Z,32.13
2022-11-15T17:56:16.676Z,34.47
2022-11-15T17:58:51.713Z,32.35
2022-11-15T18:01:23.289Z,30.08
2022-11-15T18:03:50.442Z,24.80
2022-11-15T18:06:18.562Z,31.15
2022-11-15T18:08:49.581Z,26.67
2022-11-15T18:11:21.991Z,23.00
2022-11-15T18:13:52.550Z,23.63
2022-11-15T18:16:22.518Z,20.90
2022-11-15T18:18:49.226Z,26.80
2022-11-15T18:21:21.954Z,32.50
2022-11-15T18:23:52.713Z,29.65
2022-11-15T18:26:23.072Z,41.95
2022-11-15T18:28:54.046Z,28.75
2022-11-15T18:31:21.709Z,26.67
2022-11-15T18:33:49.701Z,20.83
2022-11-15T18:36:20.435Z,25.60
2022-11-15T18:38:47.388Z,31.65
2022-11-15T18:41:18.102Z,21.10
2022-11-15T18:43:45.132Z,34.45
2022-11-15T18:46:15.010Z,20.48
2022-11-15T18:48:43.287Z,23.08
2022-11-15T18:51:15.029Z,30.55
2022-11-15T18:53:45.134Z,24.65
2022-11-15T18:56:15.632Z,16.27
2022-11-15T18:58:44.986Z,21.38
2022-11-15T19:01:17.278Z,15.90
2022-11-15T19:03:46.006Z,23.00
2022-11-15T19:06:24.725Z,17.95
2022-11-15T19:08:54.698Z,14.32
2022-11-15T19:11:31.121Z,18.60
2022-11-15T19:13:59.691Z,20.88
2022-11-15T19:16:28.284Z,21.17
2022-11-15T19:18:56.876Z,15.98
2022-11-15T19:21:25.013Z,17.33
2022-11-15T19:23:54.926Z,26.08
2022-11-15T19:26:23.255Z,14.45
2022-11-15T19:29:01.269Z,24.48
2022-11-15T19:31:29.944Z,28.33
2022-11-15T19:33:59.694Z,21.90
2022-11-15T19:36:32.661Z,17.65
2022-11-15T19:39:02.148Z,19.30
2022-11-15T19:41:28.822Z,25.52
2022-11-15T19:43:55.799Z,26.38
2022-11-15T19:46:23.739Z,23.83
2022-11-15T19:48:51.719Z,21.90
2022-11-15T19:51:23.919Z,27.50
2022-11-15T19:53:53.835Z,26.63
2022-11-15T19:56:22.049Z,25.50
2022-11-15T19:58:56.485Z,26.13
2022-11-15T20:01:25.591Z,27.27
2022-11-15T20:03:54.811Z,34.78
2022-11-15T20:06:27.506Z,33.45
2022-11-15T20:08:54.684Z,35.38
2022-11-15T20:11:21.530Z,24.85
2022-11-15T20:13:48.774Z,45.80
2022-11-15T20:16:18.585Z,33.45
2022-11-15T20:18:45.829Z,36.60
2022-11-15T20:21:13.933Z,29.13
2022-11-15T20:23:41.762Z,19.02
2022-11-15T20:26:09.903Z,20.17
2022-11-15T20:28:38.266Z,27.58
2022-11-15T20:31:06.094Z,26.75
2022-11-15T20:33:33.053Z,30.05
2022-11-15T20:36:04.251Z,22.88
2022-11-15T20:38:30.984Z,38.75
2022-11-15T20:41:00.340Z,24.80
2022-11-15T20:43:27.860Z,30.33
2022-11-15T20:45:54.797Z,26.13
2022-11-15T20:48:22.021Z,33.33
2022-11-15T20:50:48.873Z,29.33
2022-11-15T20:53:18.782Z,27.75
2022-11-15T20:55:48.633Z,34.53
2022-11-15T20:58:17.129Z,28.33
2022-11-15T21:00:45.689Z,26.52
2022-11-15T21:03:13.722Z,25.25
2022-11-15T21:05:42.992Z,26.38
2022-11-15T21:08:10.881Z,31.33
2022-11-15T21:10:56.489Z,26.75
2022-11-15T21:13:23.190Z,29.88
2022-11-15T21:15:49.890Z,27.33
2022-11-15T21:18:16.777Z,31.33
2022-11-15T21:20:43.454Z,25.65
2022-11-15T21:23:10.805Z,27.85
2022-11-15T21:25:38.015Z,28.52
2022-11-15T21:28:05.151Z,24.38
2022-11-15T21:30:31.896Z,19.20
2022-11-15T21:32:58.628Z,22.05
2022-11-15T21:35:25.509Z,19.05
2022-11-15T21:37:56.691Z,20.80
2022-11-15T21:40:24.864Z,19.20
2022-11-15T21:42:51.595Z,14.57
2022-11-15T21:45:18.215Z,25.77
2022-11-15T21:47:46.573Z,14.75
2022-11-15T21:50:14.156Z,17.40
2022-11-15T21:52:41.203Z,16.48
2022-11-15T21:55:09.017Z,19.98
2022-11-15T21:57:35.645Z,16.80
2022-11-15T22:00:21.018Z,9.65
2022-11-15T22:02:47.640Z,9.07
2022-11-15T22:05:14.373Z,10.88
2022-11-15T22:07:41.021Z,13.65
2022-11-15T22:10:08.109Z,16.88
2022-11-15T22:12:34.734Z,12.30
2022-11-15T22:15:01.593Z,7.57
2022-11-15T22:17:48.285Z,8.73
2022-11-15T22:20:45.534Z,6.50
2022-11-15T22:23:02.928Z,13.25
2022-11-15T22:25:29.839Z,9.05
2022-11-15T22:27:56.534Z,12.75
2022-11-15T22:30:24.452Z,11.52
2022-11-15T22:32:51.494Z,9.40
2022-11-15T22:35:18.218Z,11.32
2022-11-15T22:37:44.877Z,13.30
2022-11-15T22:40:11.740Z,13.50
2022-11-15T22:42:38.388Z,10.88
2022-11-15T22:45:05.522Z,13.80
2022-11-15T22:47:32.269Z,14.57
2022-11-15T22:49:58.949Z,11.75
2022-11-15T22:52:25.726Z,11.27
2022-11-15T22:54:52.522Z,14.43
2022-11-15T22:57:19.124Z,11.38
2022-11-15T22:59:46.046Z,11.60
2022-11-15T23:02:13.031Z,10.63
2022-11-15T23:04:39.816Z,8.13
2022-11-15T23:07:06.614Z,13.40
2022-11-15T23:09:33.305Z,14.27
2022-11-15T23:12:18.770Z,14.60
2022-11-15T23:14:45.513Z,9.23
2022-11-15T23:17:12.385Z,10.25
2022-11-15T23:19:39.334Z,15.85
2022-11-15T23:22:24.542Z,12.75
2022-11-15T23:24:52.697Z,13.85
2022-11-15T23:27:20.789Z,15.75
2022-11-15T23:30:06.405Z,11.25
2022-11-15T23:32:52.270Z,13.38
2022-11-15T23:35:19.169Z,8.27
2022-11-15T23:37:46.118Z,15.07
2022-11-15T23:40:13.293Z,18.67
2022-11-15T23:42:40.187Z,18.25
2022-11-15T23:45:07.176Z,15.93
2022-11-15T23:47:34.130Z,21.00
2022-11-15T23:50:01.003Z,18.35
2022-11-15T23:52:27.973Z,13.75
2022-11-15T23:54:54.672Z,13.70
2022-11-15T23:57:21.416Z,16.73
2022-11-15T23:59:48.287Z,13.85
